createdAt,value
2022-08-26T00:02:12.774Z,26.12
2022-08-26T00:04:41.648Z,26.10
2022-08-26T00:07:10.531Z,26.10
2022-08-26T00:09:40.181Z,26.07
2022-08-26T00:12:12.457Z,26.07
2022-08-26T00:14:42.230Z,26.04
2022-08-26T00:17:11.089Z,25.96
2022-08-26T00:19:39.182Z,25.94
2022-08-26T00:22:07.400Z,25.92
2022-08-26T00:24:35.648Z,25.87
2022-08-26T00:27:03.752Z,25.86
2022-08-26T00:29:34.942Z,25.82
2022-08-26T00:32:07.696Z,25.80
2022-08-26T00:34:36.543Z,25.79
2022-08-26T00:37:04.923Z,25.77
2022-08-26T00:39:38.129Z,25.75
2022-08-26T00:42:06.312Z,25.74
2022-08-26T00:44:34.183Z,25.75
2022-08-26T00:47:06.617Z,25.70
2022-08-26T00:49:39.685Z,25.66
2022-08-26T00:52:11.949Z,25.60
2022-08-26T00:54:46.647Z,25.54
2022-08-26T00:57:18.084Z,25.48
2022-08-26T00:59:48.550Z,25.44
2022-08-26T01:02:20.798Z,25.44
2022-08-26T01:04:54.387Z,25.46
2022-08-26T01:07:26.320Z,25.48
2022-08-26T01:09:55.985Z,25.47
2022-08-26T01:12:25.618Z,25.43
2022-08-26T01:14:53.771Z,25.39
2022-08-26T01:17:22.136Z,25.37
2022-08-26T01:19:56.558Z,25.36
2022-08-26T01:22:30.794Z,25.36
2022-08-26T01:25:03.579Z,25.35
2022-08-26T01:27:33.007Z,25.34
2022-08-26T01:30:03.001Z,25.33
2022-08-26T01:32:34.246Z,25.33
2022-08-26T01:35:03.340Z,25.25
2022-08-26T01:37:36.873Z,25.12
2022-08-26T01:40:14.028Z,25.01
2022-08-26T01:42:46.582Z,24.92
2022-08-26T01:45:19.650Z,24.89
2022-08-26T01:47:49.526Z,24.85
2022-08-26T01:50:30.100Z,24.80
2022-08-26T01:53:01.942Z,24.73
2022-08-26T01:55:33.375Z,24.71
2022-08-26T01:58:06.352Z,24.72
2022-08-26T02:00:36.254Z,24.71
2022-08-26T02:03:18.545Z,24.73
2022-08-26T02:05:48.837Z,24.76
2022-08-26T02:08:24.522Z,24.79
2022-08-26T02:10:55.812Z,24.80
2022-08-26T02:13:28.527Z,24.79
2022-08-26T02:15:57.387Z,24.80
2022-08-26T02:18:26.519Z,24.79
2022-08-26T02:20:57.252Z,24.81
2022-08-26T02:23:25.636Z,24.83
2022-08-26T02:25:59.793Z,24.83
2022-08-26T02:28:32.150Z,24.83
2022-08-26T02:31:00.319Z,24.83
2022-08-26T02:33:31.131Z,24.83
2022-08-26T02:36:00.153Z,24.83
2022-08-26T02:38:29.396Z,24.81
2022-08-26T02:40:59.177Z,24.81
2022-08-26T02:43:31.357Z,24.78
2022-08-26T02:46:02.577Z,24.80
2022-08-26T02:48:31.196Z,24.78
2022-08-26T02:51:01.893Z,24.79
2022-08-26T02:53:32.099Z,24.79
2022-08-26T02:56:05.231Z,24.79
2022-08-26T02:58:33.560Z,24.78
2022-08-26T03:01:02.527Z,24.77
2022-08-26T03:03:35.734Z,24.76
2022-08-26T03:06:03.671Z,24.74
2022-08-26T03:08:31.589Z,24.71
2022-08-26T03:11:01.600Z,24.69
2022-08-26T03:13:31.280Z,24.67
2022-08-26T03:16:01.688Z,24.65
2022-08-26T03:18:30.082Z,24.62
2022-08-26T03:20:58.560Z,24.59
2022-08-26T03:23:26.669Z,24.58
2022-08-26T03:25:55.556Z,24.55
2022-08-26T03:28:23.942Z,24.52
2022-08-26T03:30:57.042Z,24.50
2022-08-26T03:33:25.626Z,24.48
2022-08-26T03:35:54.719Z,24.48
2022-08-26T03:38:25.263Z,24.47
2022-08-26T03:40:53.362Z,24.46
2022-08-26T03:43:22.338Z,24.43
2022-08-26T03:45:51.314Z,24.43
2022-08-26T03:48:21.787Z,24.39
2022-08-26T03:50:49.845Z,24.35
2022-08-26T03:53:20.574Z,24.33
2022-08-26T03:55:52.037Z,24.32
2022-08-26T03:58:20.480Z,24.31
2022-08-26T04:00:48.416Z,24.31
2022-08-26T04:03:39.280Z,24.29
2022-08-26T04:06:08.082Z,24.27
2022-08-26T04:08:37.625Z,24.28
2022-08-26T04:11:07.287Z,24.25
2022-08-26T04:13:35.785Z,24.21
2022-08-26T04:16:04.466Z,24.15
2022-08-26T04:18:37.261Z,24.11
2022-08-26T04:21:09.319Z,24.05
2022-08-26T04:23:47.223Z,24.00
2022-08-26T04:26:16.928Z,23.99
2022-08-26T04:28:44.911Z,24.00
2022-08-26T04:31:14.647Z,24.00
2022-08-26T04:33:47.117Z,24.02
2022-08-26T04:36:17.651Z,24.03
2022-08-26T04:38:50.650Z,24.07
2022-08-26T04:41:20.461Z,24.12
2022-08-26T04:43:50.357Z,24.16
2022-08-26T04:46:22.736Z,24.20
2022-08-26T04:48:53.308Z,24.28
2022-08-26T04:51:27.340Z,24.29
2022-08-26T04:53:57.012Z,24.33
2022-08-26T04:56:26.221Z,24.39
2022-08-26T04:58:54.516Z,24.45
2022-08-26T05:01:23.883Z,24.52
2022-08-26T05:03:54.794Z,24.57
2022-08-26T05:06:23.184Z,24.62
2022-08-26T05:08:51.498Z,24.70
2022-08-26T05:11:22.135Z,24.78
2022-08-26T05:13:50.635Z,24.84
2022-08-26T05:16:19.405Z,24.89
2022-08-26T05:18:48.208Z,24.94
2022-08-26T05:21:23.129Z,24.98
2022-08-26T05:23:52.538Z,25.03
2022-08-26T05:26:23.204Z,25.05
2022-08-26T05:28:51.566Z,25.09
2022-08-26T05:31:26.170Z,25.12
2022-08-26T05:33:54.688Z,25.14
2022-08-26T05:36:26.973Z,25.19
2022-08-26T05:38:55.466Z,25.23
2022-08-26T05:41:28.248Z,25.23
2022-08-26T05:44:05.896Z,25.30
2022-08-26T05:46:35.127Z,25.38
2022-08-26T05:49:04.948Z,25.40
2022-08-26T05:51:35.939Z,25.43
2022-08-26T05:54:06.630Z,25.44
2022-08-26T05:56:34.604Z,25.51
2022-08-26T05:59:02.967Z,25.59
2022-08-26T06:01:35.725Z,25.66
2022-08-26T06:04:04.880Z,25.68
2022-08-26T06:06:35.725Z,25.79
2022-08-26T06:09:07.076Z,25.86
2022-08-26T06:11:39.663Z,25.92
2022-08-26T06:14:08.729Z,26.05
2022-08-26T06:16:40.901Z,26.17
2022-08-26T06:19:11.952Z,26.27
2022-08-26T06:21:43.004Z,26.43
2022-08-26T06:24:31.856Z,26.56
2022-08-26T06:27:03.914Z,26.65
2022-08-26T06:29:34.962Z,26.71
2022-08-26T06:32:05.434Z,26.79
2022-08-26T06:34:34.153Z,26.91
2022-08-26T06:37:06.387Z,27.04
2022-08-26T06:39:35.356Z,27.18
2022-08-26T06:42:08.200Z,27.32
2022-08-26T06:44:36.354Z,27.56
2022-08-26T06:47:04.410Z,27.72
2022-08-26T06:49:32.530Z,27.93
2022-08-26T06:52:00.684Z,28.16
2022-08-26T06:54:31.714Z,28.35
2022-08-26T06:57:01.097Z,28.52
2022-08-26T06:59:31.156Z,28.71
2022-08-26T07:01:59.195Z,28.88
2022-08-26T07:04:28.029Z,29.00
2022-08-26T07:06:57.491Z,29.06
2022-08-26T07:09:29.198Z,29.13
2022-08-26T07:11:58.699Z,29.18
2022-08-26T07:14:28.406Z,29.33
2022-08-26T07:16:56.447Z,29.49
2022-08-26T07:19:30.769Z,29.66
2022-08-26T07:22:01.739Z,29.88
2022-08-26T07:24:31.177Z,30.13
2022-08-26T07:27:03.522Z,30.36
2022-08-26T07:29:34.495Z,30.63
2022-08-26T07:32:03.241Z,30.93
2022-08-26T07:34:32.096Z,31.17
2022-08-26T07:37:02.047Z,31.45
2022-08-26T07:39:32.845Z,31.65
2022-08-26T07:42:07.409Z,31.87
2022-08-26T07:44:37.138Z,32.02
2022-08-26T07:47:10.579Z,32.15
2022-08-26T07:49:54.294Z,32.42
2022-08-26T07:52:26.350Z,32.77
2022-08-26T07:54:56.350Z,32.94
2022-08-26T07:57:27.071Z,33.06
2022-08-26T07:59:55.906Z,33.19
2022-08-26T08:02:26.121Z,33.23
2022-08-26T08:04:54.560Z,33.20
2022-08-26T08:07:38.740Z,33.30
2022-08-26T08:10:13.537Z,33.43
2022-08-26T08:12:43.287Z,33.58
2022-08-26T08:15:13.292Z,33.61
2022-08-26T08:17:42.901Z,33.69
2022-08-26T08:20:12.959Z,33.74
2022-08-26T08:22:40.949Z,33.73
2022-08-26T08:25:10.473Z,33.49
2022-08-26T08:27:40.776Z,33.32
2022-08-26T08:30:13.676Z,33.25
2022-08-26T08:32:43.486Z,33.33
2022-08-26T08:35:13.674Z,33.43
2022-08-26T08:37:42.545Z,33.49
2022-08-26T08:40:18.394Z,33.65
2022-08-26T08:45:33.337Z,33.76
2022-08-26T08:48:07.825Z,33.73
2022-08-26T08:50:41.020Z,33.80
2022-08-26T08:53:15.377Z,33.89
2022-08-26T08:55:52.353Z,33.94
2022-08-26T08:58:25.720Z,34.07
2022-08-26T09:01:01.474Z,34.25
2022-08-26T09:03:42.863Z,34.16
2022-08-26T09:06:17.281Z,34.38
2022-08-26T09:08:50.051Z,34.45
2022-08-26T09:11:19.677Z,34.53
2022-08-26T09:13:51.236Z,34.59
2022-08-26T09:16:28.259Z,34.70
2022-08-26T09:19:14.904Z,34.76
2022-08-26T09:21:47.253Z,34.82
2022-08-26T09:24:22.322Z,34.94
2022-08-26T09:26:58.206Z,34.92
2022-08-26T09:29:28.735Z,35.00
2022-08-26T09:32:20.762Z,35.04
2022-08-26T09:34:56.402Z,35.15
2022-08-26T09:37:40.678Z,35.22
2022-08-26T09:40:26.925Z,35.26
2022-08-26T09:43:15.796Z,35.18
2022-08-26T09:45:50.833Z,35.28
2022-08-26T09:48:34.842Z,35.50
2022-08-26T09:51:06.963Z,35.58
2022-08-26T09:53:48.507Z,35.68
2022-08-26T09:56:19.220Z,35.91
2022-08-26T09:58:48.690Z,36.26
2022-08-26T10:01:26.621Z,36.56
2022-08-26T10:04:08.552Z,36.68
2022-08-26T10:06:41.952Z,36.86
2022-08-26T10:09:14.360Z,36.99
2022-08-26T10:11:47.261Z,36.98
2022-08-26T10:14:22.015Z,37.00
2022-08-26T10:16:56.488Z,37.05
2022-08-26T10:19:41.524Z,37.14
2022-08-26T10:22:24.217Z,37.16
2022-08-26T10:24:57.015Z,37.16
2022-08-26T10:27:32.988Z,37.10
2022-08-26T10:30:07.130Z,37.19
2022-08-26T10:32:41.261Z,37.19
2022-08-26T10:35:16.976Z,37.22
2022-08-26T10:37:48.016Z,37.40
2022-08-26T10:40:23.188Z,37.58
2022-08-26T10:42:57.856Z,37.65
2022-08-26T10:45:28.781Z,37.56
2022-08-26T10:48:08.982Z,37.69
2022-08-26T10:50:40.229Z,37.69
2022-08-26T10:53:18.022Z,37.83
2022-08-26T10:55:53.945Z,37.98
2022-08-26T10:58:32.820Z,38.11
2022-08-26T11:01:36.306Z,38.22
2022-08-26T11:04:18.215Z,38.27
2022-08-26T11:07:32.148Z,38.35
2022-08-26T11:10:01.285Z,38.45
2022-08-26T11:12:52.193Z,38.65
2022-08-26T11:16:10.299Z,38.80
2022-08-26T11:18:42.628Z,38.91
2022-08-26T11:21:49.515Z,39.08
2022-08-26T11:25:00.892Z,39.34
2022-08-26T11:28:05.112Z,39.38
2022-08-26T11:30:56.842Z,39.41
2022-08-26T11:33:47.842Z,39.71
2022-08-26T11:36:41.218Z,39.81
2022-08-26T11:39:20.134Z,40.12
2022-08-26T11:41:53.093Z,40.28
2022-08-26T11:44:23.944Z,40.46
2022-08-26T11:46:54.967Z,40.67
2022-08-26T11:49:23.032Z,40.93
2022-08-26T11:51:50.913Z,40.95
2022-08-26T11:54:35.142Z,40.73
2022-08-26T11:57:11.840Z,40.63
2022-08-26T11:59:43.401Z,40.58
2022-08-26T12:02:18.169Z,40.53
2022-08-26T12:04:49.936Z,40.52
2022-08-26T12:07:25.056Z,40.43
2022-08-26T12:09:56.749Z,40.33
2022-08-26T12:12:34.756Z,40.25
2022-08-26T12:15:16.154Z,40.14
2022-08-26T12:17:46.647Z,40.22
2022-08-26T12:20:31.154Z,40.17
2022-08-26T12:23:00.757Z,40.16
2022-08-26T12:25:30.683Z,40.31
2022-08-26T12:28:06.757Z,40.20
2022-08-26T12:30:34.924Z,39.90
2022-08-26T12:33:13.325Z,39.64
2022-08-26T12:35:56.620Z,39.51
2022-08-26T12:38:26.409Z,39.33
2022-08-26T12:40:55.122Z,39.19
2022-08-26T12:43:46.334Z,39.11
2022-08-26T12:46:30.638Z,38.88
2022-08-26T12:49:01.331Z,38.91
2022-08-26T12:51:32.229Z,38.73
2022-08-26T12:54:02.254Z,38.22
2022-08-26T12:56:34.989Z,37.78
2022-08-26T12:59:20.027Z,37.12
2022-08-26T13:01:49.453Z,36.62
2022-08-26T13:04:38.116Z,36.21
2022-08-26T13:07:21.776Z,35.70
2022-08-26T13:09:50.945Z,35.19
2022-08-26T13:12:28.512Z,34.92
2022-08-26T13:14:59.691Z,34.68
2022-08-26T13:17:28.912Z,34.43
2022-08-26T13:20:01.282Z,34.28
2022-08-26T13:22:32.305Z,34.09
2022-08-26T13:25:00.477Z,33.89
2022-08-26T13:27:28.462Z,33.77
2022-08-26T13:29:59.805Z,33.61
2022-08-26T13:32:28.594Z,33.44
2022-08-26T13:34:58.316Z,33.25
2022-08-26T13:37:34.861Z,33.03
2022-08-26T13:40:05.593Z,32.82
2022-08-26T13:42:34.388Z,32.59
2022-08-26T13:45:04.236Z,32.40
2022-08-26T13:47:34.351Z,32.18
2022-08-26T13:50:02.964Z,31.97
2022-08-26T13:52:31.248Z,31.74
2022-08-26T13:55:00.061Z,31.61
2022-08-26T13:57:29.862Z,31.43
2022-08-26T13:59:59.236Z,31.25
2022-08-26T14:02:29.076Z,31.05
2022-08-26T14:04:57.253Z,30.83
2022-08-26T14:07:25.323Z,30.71
2022-08-26T14:09:53.290Z,30.62
2022-08-26T14:12:21.589Z,30.54
2022-08-26T14:14:49.542Z,30.43
2022-08-26T14:17:20.629Z,30.38
2022-08-26T14:19:51.362Z,30.30
2022-08-26T14:22:21.883Z,30.22
2022-08-26T14:24:50.438Z,30.12
2022-08-26T14:27:18.355Z,30.03
2022-08-26T14:29:46.290Z,29.95
2022-08-26T14:32:22.977Z,29.89
2022-08-26T14:34:52.285Z,29.84
2022-08-26T14:37:21.319Z,29.81
2022-08-26T14:39:49.615Z,29.77
2022-08-26T14:42:22.388Z,29.74
2022-08-26T14:44:54.534Z,29.74
2022-08-26T14:47:22.602Z,29.69
2022-08-26T14:49:52.224Z,29.64
2022-08-26T14:52:20.393Z,29.59
2022-08-26T14:54:47.361Z,29.56
2022-08-26T14:57:23.255Z,29.53
2022-08-26T14:59:51.155Z,29.48
2022-08-26T15:02:32.704Z,29.42
2022-08-26T15:05:04.304Z,29.36
2022-08-26T15:07:32.789Z,29.28
2022-08-26T15:10:01.157Z,29.23
2022-08-26T15:12:30.461Z,29.19
2022-08-26T15:15:00.702Z,29.20
2022-08-26T15:17:28.690Z,29.23
2022-08-26T15:19:56.832Z,29.28
2022-08-26T15:22:28.562Z,29.27
2022-08-26T15:24:59.053Z,29.26
2022-08-26T15:27:27.381Z,29.24
2022-08-26T15:29:55.474Z,29.29
2022-08-26T15:32:23.593Z,29.36
2022-08-26T15:34:52.959Z,29.39
2022-08-26T15:37:20.978Z,29.44
2022-08-26T15:39:52.009Z,29.47
2022-08-26T15:42:20.849Z,29.57
2022-08-26T15:44:49.865Z,29.65
2022-08-26T15:47:18.384Z,29.74
2022-08-26T15:49:46.271Z,29.80
2022-08-26T15:52:14.188Z,29.90
2022-08-26T15:54:42.416Z,29.92
2022-08-26T15:57:15.337Z,29.96
2022-08-26T15:59:44.648Z,30.01
2022-08-26T16:02:12.655Z,30.01
2022-08-26T16:04:40.788Z,30.06
2022-08-26T16:07:12.630Z,30.07
2022-08-26T16:09:40.742Z,30.03
2022-08-26T16:12:09.119Z,30.00
2022-08-26T16:14:38.844Z,29.95
2022-08-26T16:17:07.068Z,29.91
2022-08-26T16:19:34.940Z,29.91
2022-08-26T16:22:02.828Z,29.93
2022-08-26T16:24:30.923Z,29.97
2022-08-26T16:26:58.915Z,29.98
2022-08-26T16:29:26.966Z,29.98
2022-08-26T16:31:56.459Z,29.99
2022-08-26T16:34:24.482Z,29.98
2022-08-26T16:36:53.032Z,29.93
2022-08-26T16:39:21.210Z,29.86
2022-08-26T16:41:49.079Z,29.81
2022-08-26T16:44:16.991Z,29.76
2022-08-26T16:46:45.592Z,29.72
2022-08-26T16:49:15.042Z,29.69
2022-08-26T16:51:42.920Z,29.66
2022-08-26T16:54:11.026Z,29.58
2022-08-26T16:56:39.806Z,29.51
2022-08-26T16:59:10.544Z,29.43
2022-08-26T17:01:38.916Z,29.40
2022-08-26T17:04:06.824Z,29.35
2022-08-26T17:06:36.296Z,29.33
2022-08-26T17:09:04.882Z,29.32
2022-08-26T17:11:33.059Z,29.31
2022-08-26T17:14:01.002Z,29.26
2022-08-26T17:16:29.210Z,29.23
2022-08-26T17:18:58.329Z,29.18
2022-08-26T17:21:27.937Z,29.16
2022-08-26T17:23:57.499Z,29.12
2022-08-26T17:26:25.654Z,29.13
2022-08-26T17:28:54.556Z,29.11
2022-08-26T17:31:24.769Z,29.06
2022-08-26T17:33:53.921Z,29.06
2022-08-26T17:36:27.863Z,29.06
2022-08-26T17:38:58.896Z,29.05
2022-08-26T17:41:27.996Z,29.01
2022-08-26T17:43:56.085Z,28.94
2022-08-26T17:46:24.417Z,28.88
2022-08-26T17:48:53.187Z,28.84
2022-08-26T17:51:22.924Z,28.81
2022-08-26T17:53:52.384Z,28.75
2022-08-26T17:56:27.115Z,28.69
2022-08-26T17:58:57.628Z,28.63
2022-08-26T18:01:30.810Z,28.59
2022-08-26T18:04:00.589Z,28.57
2022-08-26T18:06:30.374Z,28.55
2022-08-26T18:08:59.193Z,28.53
2022-08-26T18:11:29.485Z,28.52
2022-08-26T18:13:57.854Z,28.49
2022-08-26T18:16:26.352Z,28.51
2022-08-26T18:18:55.955Z,28.51
2022-08-26T18:21:25.770Z,28.48
2022-08-26T18:23:55.023Z,28.46
2022-08-26T18:26:26.447Z,28.42
2022-08-26T18:28:56.560Z,28.36
2022-08-26T18:31:24.702Z,28.32
2022-08-26T18:33:52.922Z,28.27
2022-08-26T18:36:23.156Z,28.24
2022-08-26T18:38:52.267Z,28.18
2022-08-26T18:41:22.783Z,28.10
2022-08-26T18:43:53.382Z,28.05
2022-08-26T18:46:26.135Z,27.99
2022-08-26T18:48:56.624Z,27.96
2022-08-26T18:51:30.164Z,27.94
2022-08-26T18:53:59.554Z,27.91
2022-08-26T18:56:28.098Z,27.85
2022-08-26T18:58:57.423Z,27.84
2022-08-26T19:01:28.525Z,27.80
2022-08-26T19:03:57.078Z,27.78
2022-08-26T19:06:27.588Z,27.76
2022-08-26T19:08:55.831Z,27.78
2022-08-26T19:11:31.593Z,27.79
2022-08-26T19:14:01.435Z,27.77
2022-08-26T19:16:31.503Z,27.77
2022-08-26T19:19:01.011Z,27.76
2022-08-26T19:21:30.934Z,27.76
2022-08-26T19:24:01.334Z,27.76
2022-08-26T19:26:32.516Z,27.72
2022-08-26T19:29:02.587Z,27.67
2022-08-26T19:31:32.406Z,27.65
2022-08-26T19:34:00.532Z,27.60
2022-08-26T19:36:29.435Z,27.56
2022-08-26T19:38:59.100Z,27.54
2022-08-26T19:41:37.276Z,27.53
2022-08-26T19:44:09.858Z,27.54
2022-08-26T19:49:07.700Z,27.47
2022-08-26T19:51:38.358Z,27.45
2022-08-26T19:54:07.920Z,27.40
2022-08-26T19:56:36.607Z,27.33
2022-08-26T19:59:05.158Z,27.32
2022-08-26T20:01:33.483Z,27.31
2022-08-26T20:04:03.349Z,27.33
2022-08-26T20:06:31.901Z,27.32
2022-08-26T20:09:00.187Z,27.33
2022-08-26T20:11:29.442Z,27.31
2022-08-26T20:13:57.768Z,27.23
2022-08-26T20:16:26.402Z,27.25
2022-08-26T20:19:12.363Z,27.25
2022-08-26T20:21:42.642Z,27.24
2022-08-26T20:24:13.900Z,27.22
2022-08-26T20:26:44.559Z,27.21
2022-08-26T20:29:16.953Z,27.15
2022-08-26T20:31:46.975Z,27.14
2022-08-26T20:34:19.032Z,27.15
2022-08-26T20:36:50.308Z,27.14
2022-08-26T20:39:21.147Z,27.15
2022-08-26T20:41:50.247Z,27.14
2022-08-26T20:44:19.181Z,27.15
2022-08-26T20:46:47.387Z,27.14
2022-08-26T20:49:15.705Z,27.12
2022-08-26T20:51:45.833Z,27.10
2022-08-26T20:54:17.407Z,27.09
2022-08-26T20:56:46.127Z,27.10
2022-08-26T20:59:14.733Z,27.07
2022-08-26T21:01:43.620Z,27.05
2022-08-26T21:04:16.045Z,27.00
2022-08-26T21:06:49.426Z,26.94
2022-08-26T21:09:23.838Z,26.93
2022-08-26T21:11:53.021Z,26.90
2022-08-26T21:14:23.109Z,26.89
2022-08-26T21:16:54.419Z,26.82
2022-08-26T21:19:23.141Z,26.77
2022-08-26T21:21:51.571Z,26.75
2022-08-26T21:24:19.541Z,26.73
2022-08-26T21:26:49.250Z,26.75
2022-08-26T21:29:17.126Z,26.60
2022-08-26T21:31:46.894Z,26.57
2022-08-26T21:34:17.411Z,26.53
2022-08-26T21:36:45.675Z,26.51
2022-08-26T21:39:13.937Z,26.51
2022-08-26T21:41:43.641Z,26.50
2022-08-26T21:44:14.600Z,26.48
2022-08-26T21:46:43.996Z,26.44
2022-08-26T21:49:15.597Z,26.42
2022-08-26T21:51:46.396Z,26.41
2022-08-26T21:54:15.279Z,26.41
2022-08-26T21:56:46.965Z,26.41
2022-08-26T21:59:18.306Z,26.35
2022-08-26T22:01:46.788Z,26.30
2022-08-26T22:04:15.671Z,26.31
2022-08-26T22:06:46.387Z,26.30
2022-08-26T22:09:17.145Z,26.30
2022-08-26T22:11:45.791Z,26.26
2022-08-26T22:14:14.318Z,26.23
2022-08-26T22:16:45.708Z,26.19
2022-08-26T22:19:19.881Z,26.16
2022-08-26T22:21:49.527Z,26.15
2022-08-26T22:24:17.887Z,26.15
2022-08-26T22:26:46.880Z,26.15
2022-08-26T22:29:15.527Z,26.12
2022-08-26T22:31:44.933Z,26.10
2022-08-26T22:34:17.201Z,26.07
2022-08-26T22:36:48.418Z,26.06
2022-08-26T22:39:19.355Z,26.06
2022-08-26T22:41:48.740Z,26.02
2022-08-26T22:44:17.458Z,26.00
2022-08-26T22:46:48.081Z,25.97
2022-08-26T22:49:17.442Z,25.93
2022-08-26T22:51:46.395Z,25.90
2022-08-26T22:54:15.487Z,25.87
2022-08-26T22:56:44.585Z,25.84
2022-08-26T22:59:14.039Z,25.83
2022-08-26T23:01:44.415Z,25.82
2022-08-26T23:04:14.255Z,25.82
2022-08-26T23:06:47.636Z,25.80
2022-08-26T23:09:18.066Z,25.82
2022-08-26T23:11:46.858Z,25.77
2022-08-26T23:14:14.870Z,25.74
2022-08-26T23:16:43.279Z,25.73
2022-08-26T23:19:13.041Z,25.73
2022-08-26T23:21:42.687Z,25.72
2022-08-26T23:24:11.775Z,25.66
2022-08-26T23:26:41.365Z,25.63
2022-08-26T23:29:11.804Z,25.65
2022-08-26T23:31:42.191Z,25.67
2022-08-26T23:34:28.834Z,25.68
2022-08-26T23:37:00.221Z,25.71
2022-08-26T23:39:29.178Z,25.68
2022-08-26T23:41:58.085Z,25.66
2022-08-26T23:44:26.709Z,25.62
2022-08-26T23:46:55.088Z,25.60
2022-08-26T23:49:23.077Z,25.59
2022-08-26T23:52:09.216Z,25.58
2022-08-26T23:54:39.272Z,25.53
2022-08-26T23:57:07.977Z,25.51
2022-08-26T23:59:38.072Z,25.50
